Weather at Alpena County Regional Airport

Public forecast

Using degrees Fahrenheit for public forecast. Weather courtesy of forecast.io.

Current aviation weather report (METAR) for Alpena County Regional Airport

Retrieved 2022/01/27 03:54 UTC (50 minutes ago):

KAPN 270354Z AUTO 20014G28KT 10SM CLR M10/M16 A3006 RMK AO2 PK WND 21028/0350 SLP195 T11001156

Aviation forecast (TAF) for Alpena County Regional Airport

Retrieved 2022-01-27 00:22 UTC (4 hours ago):

TAF KAPN 262320Z 2700/2724 20012G21KT P6SM BKN120 FM271500 23014G24KT P6SM VCSH SCT025 OVC050 FM271800 28013G23KT 5SM -SHSN OVC025